sensor_id;sensor_type;location;lat;lon;timestamp;P1;durP1;ratioP1;P2;durP2;ratioP2
53293;SDS011;39181;53.440;5.644;2023-10-13T00:00:21;54.20;;;22.65;;
53293;SDS011;39181;53.440;5.644;2023-10-13T00:02:57;60.63;;;23.42;;
53293;SDS011;39181;53.440;5.644;2023-10-13T00:05:28;49.00;;;21.38;;
53293;SDS011;39181;53.440;5.644;2023-10-13T00:07:58;50.00;;;22.70;;
53293;SDS011;39181;53.440;5.644;2023-10-13T00:10:30;51.75;;;22.60;;
53293;SDS011;39181;53.440;5.644;2023-10-13T00:12:57;49.53;;;21.15;;
53293;SDS011;39181;53.440;5.644;2023-10-13T00:15:40;54.17;;;24.70;;
53293;SDS011;39181;53.440;5.644;2023-10-13T00:18:25;51.45;;;22.38;;
53293;SDS011;39181;53.440;5.644;2023-10-13T00:20:52;56.97;;;25.45;;
53293;SDS011;39181;53.440;5.644;2023-10-13T00:23:21;53.45;;;23.00;;
53293;SDS011;39181;53.440;5.644;2023-10-13T00:25:48;50.13;;;22.58;;
53293;SDS011;39181;53.440;5.644;2023-10-13T00:28:16;58.17;;;24.30;;
53293;SDS011;39181;53.440;5.644;2023-10-13T00:30:51;58.88;;;24.17;;
53293;SDS011;39181;53.440;5.644;2023-10-13T00:35:50;48.75;;;22.67;;
53293;SDS011;39181;53.440;5.644;2023-10-13T00:38:22;43.95;;;21.83;;
53293;SDS011;39181;53.440;5.644;2023-10-13T00:40:49;46.88;;;24.00;;
53293;SDS011;39181;53.440;5.644;2023-10-13T00:43:21;55.50;;;23.23;;
53293;SDS011;39181;53.440;5.644;2023-10-13T00:45:51;54.70;;;23.98;;
53293;SDS011;39181;53.440;5.644;2023-10-13T00:48:40;55.33;;;25.75;;
53293;SDS011;39181;53.440;5.644;2023-10-13T00:51:08;54.47;;;25.98;;
53293;SDS011;39181;53.440;5.644;2023-10-13T00:53:54;59.88;;;25.38;;
53293;SDS011;39181;53.440;5.644;2023-10-13T00:56:21;55.33;;;24.65;;
53293;SDS011;39181;53.440;5.644;2023-10-13T00:58:52;62.17;;;26.17;;
53293;SDS011;39181;53.440;5.644;2023-10-13T01:01:23;64.13;;;25.77;;
53293;SDS011;39181;53.440;5.644;2023-10-13T01:03:55;61.72;;;26.23;;
53293;SDS011;39181;53.440;5.644;2023-10-13T01:06:33;56.55;;;26.10;;
53293;SDS011;39181;53.440;5.644;2023-10-13T01:09:03;62.72;;;26.85;;
53293;SDS011;39181;53.440;5.644;2023-10-13T01:11:46;66.07;;;26.20;;
53293;SDS011;39181;53.440;5.644;2023-10-13T01:14:17;62.30;;;27.40;;
53293;SDS011;39181;53.440;5.644;2023-10-13T01:16:47;63.80;;;27.98;;
53293;SDS011;39181;53.440;5.644;2023-10-13T01:19:17;59.80;;;26.27;;
53293;SDS011;39181;53.440;5.644;2023-10-13T01:21:45;66.80;;;27.13;;
53293;SDS011;39181;53.440;5.644;2023-10-13T01:24:13;53.15;;;25.90;;
53293;SDS011;39181;53.440;5.644;2023-10-13T01:26:40;62.80;;;25.70;;
53293;SDS011;39181;53.440;5.644;2023-10-13T01:29:07;65.10;;;26.95;;
53293;SDS011;39181;53.440;5.644;2023-10-13T01:31:39;59.20;;;26.42;;
53293;SDS011;39181;53.440;5.644;2023-10-13T01:34:11;59.38;;;25.45;;
53293;SDS011;39181;53.440;5.644;2023-10-13T01:36:47;59.78;;;25.52;;
53293;SDS011;39181;53.440;5.644;2023-10-13T01:39:20;64.25;;;26.23;;
53293;SDS011;39181;53.440;5.644;2023-10-13T01:41:51;54.83;;;24.98;;
53293;SDS011;39181;53.440;5.644;2023-10-13T01:44:20;58.60;;;23.58;;
53293;SDS011;39181;53.440;5.644;2023-10-13T01:46:55;53.30;;;21.88;;
53293;SDS011;39181;53.440;5.644;2023-10-13T01:49:24;50.90;;;21.08;;
53293;SDS011;39181;53.440;5.644;2023-10-13T01:51:52;42.85;;;19.75;;
53293;SDS011;39181;53.440;5.644;2023-10-13T01:54:18;37.17;;;16.77;;
53293;SDS011;39181;53.440;5.644;2023-10-13T01:56:46;37.08;;;16.35;;
53293;SDS011;39181;53.440;5.644;2023-10-13T01:59:14;34.15;;;14.75;;
53293;SDS011;39181;53.440;5.644;2023-10-13T02:01:40;27.45;;;13.18;;
53293;SDS011;39181;53.440;5.644;2023-10-13T02:04:07;27.48;;;11.38;;
53293;SDS011;39181;53.440;5.644;2023-10-13T02:06:34;21.67;;;7.50;;
53293;SDS011;39181;53.440;5.644;2023-10-13T02:09:07;14.43;;;5.72;;
53293;SDS011;39181;53.440;5.644;2023-10-13T02:11:50;11.95;;;5.43;;
53293;SDS011;39181;53.440;5.644;2023-10-13T02:14:19;13.88;;;4.97;;
53293;SDS011;39181;53.440;5.644;2023-10-13T02:16:50;14.55;;;4.28;;
53293;SDS011;39181;53.440;5.644;2023-10-13T02:19:20;14.80;;;3.88;;
53293;SDS011;39181;53.440;5.644;2023-10-13T02:21:46;14.75;;;3.50;;
53293;SDS011;39181;53.440;5.644;2023-10-13T02:24:23;8.40;;;2.75;;
53293;SDS011;39181;53.440;5.644;2023-10-13T02:26:54;16.85;;;3.28;;
53293;SDS011;39181;53.440;5.644;2023-10-13T02:29:21;11.90;;;2.63;;
53293;SDS011;39181;53.440;5.644;2023-10-13T02:31:47;12.70;;;2.50;;
53293;SDS011;39181;53.440;5.644;2023-10-13T02:34:19;13.02;;;2.50;;
53293;SDS011;39181;53.440;5.644;2023-10-13T02:36:47;10.38;;;2.42;;
53293;SDS011;39181;53.440;5.644;2023-10-13T02:39:16;9.80;;;2.38;;
53293;SDS011;39181;53.440;5.644;2023-10-13T02:41:42;9.48;;;2.05;;
53293;SDS011;39181;53.440;5.644;2023-10-13T02:44:13;8.32;;;1.70;;
53293;SDS011;39181;53.440;5.644;2023-10-13T02:46:55;8.82;;;2.05;;
53293;SDS011;39181;53.440;5.644;2023-10-13T02:49:24;12.80;;;2.15;;
53293;SDS011;39181;53.440;5.644;2023-10-13T02:51:51;11.82;;;1.92;;
53293;SDS011;39181;53.440;5.644;2023-10-13T02:54:18;10.50;;;2.00;;
53293;SDS011;39181;53.440;5.644;2023-10-13T02:56:44;18.05;;;2.45;;
53293;SDS011;39181;53.440;5.644;2023-10-13T02:59:24;10.27;;;2.20;;
53293;SDS011;39181;53.440;5.644;2023-10-13T03:02:02;10.95;;;2.25;;
53293;SDS011;39181;53.440;5.644;2023-10-13T03:04:47;10.05;;;1.95;;
53293;SDS011;39181;53.440;5.644;2023-10-13T03:07:13;11.57;;;2.28;;
53293;SDS011;39181;53.440;5.644;2023-10-13T03:09:47;17.63;;;2.83;;
53293;SDS011;39181;53.440;5.644;2023-10-13T03:12:17;12.82;;;2.40;;
53293;SDS011;39181;53.440;5.644;2023-10-13T03:14:43;10.88;;;2.15;;
53293;SDS011;39181;53.440;5.644;2023-10-13T03:17:20;13.13;;;2.72;;
53293;SDS011;39181;53.440;5.644;2023-10-13T03:19:58;7.53;;;2.55;;
53293;SDS011;39181;53.440;5.644;2023-10-13T03:22:24;14.55;;;2.40;;
53293;SDS011;39181;53.440;5.644;2023-10-13T03:24:57;12.82;;;2.50;;
53293;SDS011;39181;53.440;5.644;2023-10-13T03:27:29;13.10;;;2.78;;
53293;SDS011;39181;53.440;5.644;2023-10-13T03:30:05;16.42;;;3.13;;
53293;SDS011;39181;53.440;5.644;2023-10-13T03:32:38;11.30;;;3.10;;
53293;SDS011;39181;53.440;5.644;2023-10-13T03:35:08;17.30;;;3.58;;
53293;SDS011;39181;53.440;5.644;2023-10-13T03:37:50;16.42;;;3.63;;
53293;SDS011;39181;53.440;5.644;2023-10-13T03:40:16;17.95;;;4.35;;
53293;SDS011;39181;53.440;5.644;2023-10-13T03:42:44;14.77;;;4.30;;
53293;SDS011;39181;53.440;5.644;2023-10-13T03:45:23;9.18;;;3.78;;
53293;SDS011;39181;53.440;5.644;2023-10-13T03:47:50;14.00;;;4.28;;
53293;SDS011;39181;53.440;5.644;2023-10-13T03:50:17;10.93;;;4.43;;
53293;SDS011;39181;53.440;5.644;2023-10-13T03:52:54;15.88;;;5.82;;
53293;SDS011;39181;53.440;5.644;2023-10-13T03:55:23;14.50;;;6.45;;
53293;SDS011;39181;53.440;5.644;2023-10-13T03:57:52;18.25;;;8.15;;
53293;SDS011;39181;53.440;5.644;2023-10-13T04:00:24;16.65;;;7.03;;
53293;SDS011;39181;53.440;5.644;2023-10-13T04:02:51;19.73;;;8.27;;
53293;SDS011;39181;53.440;5.644;2023-10-13T04:05:32;24.15;;;7.47;;
53293;SDS011;39181;53.440;5.644;2023-10-13T04:08:02;16.40;;;7.65;;
53293;SDS011;39181;53.440;5.644;2023-10-13T04:10:46;15.10;;;6.72;;
53293;SDS011;39181;53.440;5.644;2023-10-13T04:13:18;12.73;;;7.70;;
53293;SDS011;39181;53.440;5.644;2023-10-13T04:16:03;19.92;;;8.50;;
53293;SDS011;39181;53.440;5.644;2023-10-13T04:18:50;15.52;;;8.73;;
53293;SDS011;39181;53.440;5.644;2023-10-13T04:21:33;14.38;;;9.25;;
53293;SDS011;39181;53.440;5.644;2023-10-13T04:24:11;21.88;;;10.25;;
53293;SDS011;39181;53.440;5.644;2023-10-13T04:26:50;21.88;;;11.77;;
53293;SDS011;39181;53.440;5.644;2023-10-13T04:29:35;23.17;;;11.70;;
53293;SDS011;39181;53.440;5.644;2023-10-13T04:32:30;20.00;;;12.20;;
53293;SDS011;39181;53.440;5.644;2023-10-13T04:35:03;26.45;;;13.90;;
53293;SDS011;39181;53.440;5.644;2023-10-13T04:37:38;26.98;;;15.20;;
53293;SDS011;39181;53.440;5.644;2023-10-13T04:40:27;24.00;;;13.45;;
53293;SDS011;39181;53.440;5.644;2023-10-13T04:43:00;30.83;;;14.85;;
53293;SDS011;39181;53.440;5.644;2023-10-13T04:45:46;28.70;;;14.90;;
53293;SDS011;39181;53.440;5.644;2023-10-13T04:48:19;28.67;;;14.80;;
53293;SDS011;39181;53.440;5.644;2023-10-13T04:50:45;24.55;;;13.98;;
53293;SDS011;39181;53.440;5.644;2023-10-13T04:53:17;30.05;;;14.15;;
53293;SDS011;39181;53.440;5.644;2023-10-13T04:55:59;27.35;;;13.27;;
53293;SDS011;39181;53.440;5.644;2023-10-13T04:58:28;26.00;;;12.07;;
53293;SDS011;39181;53.440;5.644;2023-10-13T05:01:03;28.65;;;12.75;;
53293;SDS011;39181;53.440;5.644;2023-10-13T05:03:48;24.25;;;10.88;;
53293;SDS011;39181;53.440;5.644;2023-10-13T05:06:36;24.45;;;11.52;;
53293;SDS011;39181;53.440;5.644;2023-10-13T05:09:02;29.00;;;11.02;;
53293;SDS011;39181;53.440;5.644;2023-10-13T05:11:46;23.10;;;10.98;;
53293;SDS011;39181;53.440;5.644;2023-10-13T05:14:31;33.05;;;10.85;;
53293;SDS011;39181;53.440;5.644;2023-10-13T05:17:15;24.08;;;9.70;;
53293;SDS011;39181;53.440;5.644;2023-10-13T05:19:59;27.15;;;10.23;;
53293;SDS011;39181;53.440;5.644;2023-10-13T05:22:44;15.73;;;6.97;;
53293;SDS011;39181;53.440;5.644;2023-10-13T05:25:28;13.95;;;5.53;;
53293;SDS011;39181;53.440;5.644;2023-10-13T05:28:12;18.48;;;6.07;;
53293;SDS011;39181;53.440;5.644;2023-10-13T05:31:00;17.30;;;5.97;;
53293;SDS011;39181;53.440;5.644;2023-10-13T05:33:44;14.23;;;4.22;;
53293;SDS011;39181;53.440;5.644;2023-10-13T05:36:28;8.57;;;3.60;;
53293;SDS011;39181;53.440;5.644;2023-10-13T05:39:13;14.30;;;3.80;;
53293;SDS011;39181;53.440;5.644;2023-10-13T05:41:57;11.38;;;4.63;;
53293;SDS011;39181;53.440;5.644;2023-10-13T05:44:41;4.25;;;2.83;;
53293;SDS011;39181;53.440;5.644;2023-10-13T05:47:25;7.28;;;4.45;;
53293;SDS011;39181;53.440;5.644;2023-10-13T05:50:04;17.92;;;4.88;;
53293;SDS011;39181;53.440;5.644;2023-10-13T05:52:38;8.98;;;4.40;;
53293;SDS011;39181;53.440;5.644;2023-10-13T05:55:25;8.90;;;4.10;;
53293;SDS011;39181;53.440;5.644;2023-10-13T05:58:13;9.73;;;4.53;;
53293;SDS011;39181;53.440;5.644;2023-10-13T06:00:58;12.18;;;4.90;;
53293;SDS011;39181;53.440;5.644;2023-10-13T06:03:42;13.55;;;5.57;;
53293;SDS011;39181;53.440;5.644;2023-10-13T06:06:26;7.68;;;3.97;;
53293;SDS011;39181;53.440;5.644;2023-10-13T06:09:11;9.45;;;3.13;;
53293;SDS011;39181;53.440;5.644;2023-10-13T06:11:55;11.07;;;3.35;;
53293;SDS011;39181;53.440;5.644;2023-10-13T06:14:39;14.95;;;3.50;;
53293;SDS011;39181;53.440;5.644;2023-10-13T06:17:24;14.10;;;3.30;;
53293;SDS011;39181;53.440;5.644;2023-10-13T06:20:08;19.05;;;3.92;;
53293;SDS011;39181;53.440;5.644;2023-10-13T06:22:53;11.75;;;3.30;;
53293;SDS011;39181;53.440;5.644;2023-10-13T06:25:54;12.23;;;2.92;;
53293;SDS011;39181;53.440;5.644;2023-10-13T06:28:39;16.90;;;3.30;;
53293;SDS011;39181;53.440;5.644;2023-10-13T06:31:08;13.20;;;2.92;;
53293;SDS011;39181;53.440;5.644;2023-10-13T06:33:46;10.90;;;2.63;;
53293;SDS011;39181;53.440;5.644;2023-10-13T06:36:12;13.93;;;2.17;;
53293;SDS011;39181;53.440;5.644;2023-10-13T06:38:37;17.05;;;2.10;;
53293;SDS011;39181;53.440;5.644;2023-10-13T06:41:07;17.08;;;2.47;;
53293;SDS011;39181;53.440;5.644;2023-10-13T06:43:36;12.40;;;2.40;;
53293;SDS011;39181;53.440;5.644;2023-10-13T06:46:08;19.60;;;2.42;;
53293;SDS011;39181;53.440;5.644;2023-10-13T06:48:48;18.30;;;2.47;;
53293;SDS011;39181;53.440;5.644;2023-10-13T06:51:18;22.63;;;3.10;;
53293;SDS011;39181;53.440;5.644;2023-10-13T06:53:46;31.25;;;4.63;;
53293;SDS011;39181;53.440;5.644;2023-10-13T06:56:16;30.30;;;4.50;;
53293;SDS011;39181;53.440;5.644;2023-10-13T06:58:50;27.25;;;4.82;;
53293;SDS011;39181;53.440;5.644;2023-10-13T07:01:16;26.90;;;5.45;;
53293;SDS011;39181;53.440;5.644;2023-10-13T07:03:47;23.60;;;4.28;;
53293;SDS011;39181;53.440;5.644;2023-10-13T07:06:22;37.35;;;5.95;;
53293;SDS011;39181;53.440;5.644;2023-10-13T07:08:48;28.90;;;5.47;;
53293;SDS011;39181;53.440;5.644;2023-10-13T07:11:26;29.27;;;5.55;;
53293;SDS011;39181;53.440;5.644;2023-10-13T07:13:59;35.65;;;7.30;;
53293;SDS011;39181;53.440;5.644;2023-10-13T07:16:34;35.67;;;5.55;;
53293;SDS011;39181;53.440;5.644;2023-10-13T07:19:00;26.83;;;5.95;;
53293;SDS011;39181;53.440;5.644;2023-10-13T07:21:30;32.58;;;5.78;;
53293;SDS011;39181;53.440;5.644;2023-10-13T07:23:57;34.70;;;5.57;;
53293;SDS011;39181;53.440;5.644;2023-10-13T07:26:32;33.08;;;5.70;;
53293;SDS011;39181;53.440;5.644;2023-10-13T07:28:58;43.60;;;5.90;;
53293;SDS011;39181;53.440;5.644;2023-10-13T07:31:25;33.70;;;5.65;;
53293;SDS011;39181;53.440;5.644;2023-10-13T07:33:52;33.75;;;5.75;;
53293;SDS011;39181;53.440;5.644;2023-10-13T07:36:28;39.83;;;5.93;;
53293;SDS011;39181;53.440;5.644;2023-10-13T07:38:58;42.35;;;6.65;;
53293;SDS011;39181;53.440;5.644;2023-10-13T07:41:46;34.63;;;5.90;;
53293;SDS011;39181;53.440;5.644;2023-10-13T07:44:16;39.45;;;6.80;;
53293;SDS011;39181;53.440;5.644;2023-10-13T07:46:45;35.05;;;6.10;;
53293;SDS011;39181;53.440;5.644;2023-10-13T07:49:14;39.55;;;5.82;;
53293;SDS011;39181;53.440;5.644;2023-10-13T07:51:40;33.28;;;5.85;;
53293;SDS011;39181;53.440;5.644;2023-10-13T07:54:13;35.30;;;6.35;;
53293;SDS011;39181;53.440;5.644;2023-10-13T07:56:46;37.72;;;6.18;;
53293;SDS011;39181;53.440;5.644;2023-10-13T07:59:12;46.65;;;7.85;;
53293;SDS011;39181;53.440;5.644;2023-10-13T08:01:40;47.08;;;7.28;;
53293;SDS011;39181;53.440;5.644;2023-10-13T08:04:10;41.38;;;6.40;;
53293;SDS011;39181;53.440;5.644;2023-10-13T08:06:36;36.97;;;6.18;;
53293;SDS011;39181;53.440;5.644;2023-10-13T08:09:05;35.65;;;6.05;;
53293;SDS011;39181;53.440;5.644;2023-10-13T08:11:36;25.40;;;5.57;;
53293;SDS011;39181;53.440;5.644;2023-10-13T08:14:03;29.05;;;6.40;;
53293;SDS011;39181;53.440;5.644;2023-10-13T08:16:39;23.13;;;5.15;;
53293;SDS011;39181;53.440;5.644;2023-10-13T08:19:18;25.17;;;4.95;;
53293;SDS011;39181;53.440;5.644;2023-10-13T08:21:45;22.65;;;6.20;;
53293;SDS011;39181;53.440;5.644;2023-10-13T08:24:17;22.52;;;5.40;;
53293;SDS011;39181;53.440;5.644;2023-10-13T08:27:02;26.80;;;5.10;;
53293;SDS011;39181;53.440;5.644;2023-10-13T08:29:43;18.55;;;4.97;;
53293;SDS011;39181;53.440;5.644;2023-10-13T08:34:57;26.48;;;6.07;;
53293;SDS011;39181;53.440;5.644;2023-10-13T08:37:34;20.35;;;4.30;;
53293;SDS011;39181;53.440;5.644;2023-10-13T08:40:12;23.88;;;4.93;;
53293;SDS011;39181;53.440;5.644;2023-10-13T08:42:57;20.55;;;5.38;;
53293;SDS011;39181;53.440;5.644;2023-10-13T08:45:30;16.45;;;4.35;;
53293;SDS011;39181;53.440;5.644;2023-10-13T08:47:59;16.83;;;3.95;;
53293;SDS011;39181;53.440;5.644;2023-10-13T08:50:33;20.02;;;4.75;;
53293;SDS011;39181;53.440;5.644;2023-10-13T08:53:18;22.92;;;5.05;;
53293;SDS011;39181;53.440;5.644;2023-10-13T08:56:00;17.33;;;4.55;;
53293;SDS011;39181;53.440;5.644;2023-10-13T08:58:53;16.77;;;4.28;;
53293;SDS011;39181;53.440;5.644;2023-10-13T09:01:19;13.65;;;4.30;;
53293;SDS011;39181;53.440;5.644;2023-10-13T09:06:59;17.45;;;4.75;;
53293;SDS011;39181;53.440;5.644;2023-10-13T09:09:33;15.55;;;4.40;;
53293;SDS011;39181;53.440;5.644;2023-10-13T09:12:27;13.60;;;5.00;;
53293;SDS011;39181;53.440;5.644;2023-10-13T09:14:57;18.38;;;4.82;;
53293;SDS011;39181;53.440;5.644;2023-10-13T09:17:32;19.75;;;4.60;;
53293;SDS011;39181;53.440;5.644;2023-10-13T09:20:06;19.40;;;5.22;;
53293;SDS011;39181;53.440;5.644;2023-10-13T09:22:50;17.40;;;5.22;;
53293;SDS011;39181;53.440;5.644;2023-10-13T09:25:35;13.60;;;4.72;;
53293;SDS011;39181;53.440;5.644;2023-10-13T09:28:12;15.80;;;5.60;;
53293;SDS011;39181;53.440;5.644;2023-10-13T09:30:50;17.52;;;5.53;;
53293;SDS011;39181;53.440;5.644;2023-10-13T09:33:21;23.02;;;5.65;;
53293;SDS011;39181;53.440;5.644;2023-10-13T09:36:00;20.33;;;4.85;;
53293;SDS011;39181;53.440;5.644;2023-10-13T09:38:30;25.88;;;6.38;;
53293;SDS011;39181;53.440;5.644;2023-10-13T09:41:03;20.13;;;6.20;;
53293;SDS011;39181;53.440;5.644;2023-10-13T09:43:51;12.35;;;4.93;;
53293;SDS011;39181;53.440;5.644;2023-10-13T09:46:20;21.45;;;5.07;;
53293;SDS011;39181;53.440;5.644;2023-10-13T09:48:49;30.58;;;6.38;;
53293;SDS011;39181;53.440;5.644;2023-10-13T09:51:29;22.70;;;5.70;;
53293;SDS011;39181;53.440;5.644;2023-10-13T09:54:18;28.50;;;6.78;;
53293;SDS011;39181;53.440;5.644;2023-10-13T09:56:53;19.92;;;5.78;;
53293;SDS011;39181;53.440;5.644;2023-10-13T09:59:35;21.85;;;5.38;;
53293;SDS011;39181;53.440;5.644;2023-10-13T10:02:18;18.40;;;5.72;;
53293;SDS011;39181;53.440;5.644;2023-10-13T10:04:56;21.58;;;5.55;;
53293;SDS011;39181;53.440;5.644;2023-10-13T10:07:37;18.83;;;5.10;;
53293;SDS011;39181;53.440;5.644;2023-10-13T10:10:04;19.95;;;5.30;;
53293;SDS011;39181;53.440;5.644;2023-10-13T10:15:28;25.02;;;5.70;;
53293;SDS011;39181;53.440;5.644;2023-10-13T10:18:00;17.23;;;4.28;;
53293;SDS011;39181;53.440;5.644;2023-10-13T10:20:32;19.45;;;4.93;;
53293;SDS011;39181;53.440;5.644;2023-10-13T10:23:06;15.60;;;4.55;;
53293;SDS011;39181;53.440;5.644;2023-10-13T10:25:47;17.27;;;5.20;;
53293;SDS011;39181;53.440;5.644;2023-10-13T10:28:15;15.60;;;4.43;;
53293;SDS011;39181;53.440;5.644;2023-10-13T10:30:41;18.70;;;4.20;;
53293;SDS011;39181;53.440;5.644;2023-10-13T10:33:07;21.85;;;5.10;;
53293;SDS011;39181;53.440;5.644;2023-10-13T10:35:44;22.70;;;6.03;;
53293;SDS011;39181;53.440;5.644;2023-10-13T10:38:12;19.50;;;4.50;;
53293;SDS011;39181;53.440;5.644;2023-10-13T10:40:49;15.77;;;5.43;;
53293;SDS011;39181;53.440;5.644;2023-10-13T10:43:25;20.17;;;5.25;;
53293;SDS011;39181;53.440;5.644;2023-10-13T10:46:10;21.17;;;5.30;;
53293;SDS011;39181;53.440;5.644;2023-10-13T10:48:37;22.17;;;4.47;;
53293;SDS011;39181;53.440;5.644;2023-10-13T10:51:08;20.02;;;5.05;;
53293;SDS011;39181;53.440;5.644;2023-10-13T10:53:47;18.42;;;4.78;;
53293;SDS011;39181;53.440;5.644;2023-10-13T10:56:14;26.83;;;4.97;;
53293;SDS011;39181;53.440;5.644;2023-10-13T10:58:54;22.55;;;5.75;;
53293;SDS011;39181;53.440;5.644;2023-10-13T11:01:22;24.15;;;5.85;;
53293;SDS011;39181;53.440;5.644;2023-10-13T11:03:55;26.08;;;5.85;;
53293;SDS011;39181;53.440;5.644;2023-10-13T11:06:44;29.75;;;6.97;;
53293;SDS011;39181;53.440;5.644;2023-10-13T11:09:27;26.48;;;5.30;;
53293;SDS011;39181;53.440;5.644;2023-10-13T11:12:10;26.60;;;5.35;;
53293;SDS011;39181;53.440;5.644;2023-10-13T11:14:40;23.67;;;5.20;;
53293;SDS011;39181;53.440;5.644;2023-10-13T11:17:08;22.00;;;5.25;;
53293;SDS011;39181;53.440;5.644;2023-10-13T11:19:43;22.58;;;4.50;;
53293;SDS011;39181;53.440;5.644;2023-10-13T11:22:19;21.42;;;4.05;;
53293;SDS011;39181;53.440;5.644;2023-10-13T11:24:57;24.52;;;5.70;;
53293;SDS011;39181;53.440;5.644;2023-10-13T11:27:33;21.58;;;5.68;;
53293;SDS011;39181;53.440;5.644;2023-10-13T11:30:13;24.73;;;5.57;;
53293;SDS011;39181;53.440;5.644;2023-10-13T11:32:44;29.42;;;6.03;;
53293;SDS011;39181;53.440;5.644;2023-10-13T11:35:12;23.63;;;5.75;;
53293;SDS011;39181;53.440;5.644;2023-10-13T11:37:46;24.27;;;4.97;;
53293;SDS011;39181;53.440;5.644;2023-10-13T11:40:21;23.60;;;5.65;;
53293;SDS011;39181;53.440;5.644;2023-10-13T11:43:06;28.45;;;6.05;;
53293;SDS011;39181;53.440;5.644;2023-10-13T11:45:38;28.52;;;5.93;;
53293;SDS011;39181;53.440;5.644;2023-10-13T11:48:18;52.28;;;7.68;;
53293;SDS011;39181;53.440;5.644;2023-10-13T11:50:58;45.22;;;7.82;;
53293;SDS011;39181;53.440;5.644;2023-10-13T11:53:24;52.80;;;9.88;;
53293;SDS011;39181;53.440;5.644;2023-10-13T11:55:52;46.63;;;7.93;;
53293;SDS011;39181;53.440;5.644;2023-10-13T11:58:18;49.45;;;8.30;;
53293;SDS011;39181;53.440;5.644;2023-10-13T12:00:44;34.70;;;6.90;;
53293;SDS011;39181;53.440;5.644;2023-10-13T12:03:16;46.70;;;8.05;;
53293;SDS011;39181;53.440;5.644;2023-10-13T12:06:00;38.03;;;8.50;;
53293;SDS011;39181;53.440;5.644;2023-10-13T12:08:47;35.00;;;7.57;;
53293;SDS011;39181;53.440;5.644;2023-10-13T12:11:17;39.33;;;8.07;;
53293;SDS011;39181;53.440;5.644;2023-10-13T12:13:55;35.08;;;7.70;;
53293;SDS011;39181;53.440;5.644;2023-10-13T12:16:21;41.47;;;7.82;;
53293;SDS011;39181;53.440;5.644;2023-10-13T12:18:47;50.97;;;9.30;;
53293;SDS011;39181;53.440;5.644;2023-10-13T12:21:21;57.00;;;8.85;;
53293;SDS011;39181;53.440;5.644;2023-10-13T12:23:47;60.55;;;9.38;;
53293;SDS011;39181;53.440;5.644;2023-10-13T12:26:12;50.55;;;9.02;;
53293;SDS011;39181;53.440;5.644;2023-10-13T12:28:45;58.65;;;10.43;;
53293;SDS011;39181;53.440;5.644;2023-10-13T12:31:16;54.00;;;9.43;;
53293;SDS011;39181;53.440;5.644;2023-10-13T12:33:43;61.58;;;9.18;;
53293;SDS011;39181;53.440;5.644;2023-10-13T12:36:12;70.25;;;10.05;;
53293;SDS011;39181;53.440;5.644;2023-10-13T12:38:38;61.92;;;9.23;;
53293;SDS011;39181;53.440;5.644;2023-10-13T12:41:19;46.25;;;7.50;;
53293;SDS011;39181;53.440;5.644;2023-10-13T12:44:04;49.88;;;7.95;;
53293;SDS011;39181;53.440;5.644;2023-10-13T12:46:49;49.00;;;9.77;;
53293;SDS011;39181;53.440;5.644;2023-10-13T12:49:33;50.22;;;8.65;;
53293;SDS011;39181;53.440;5.644;2023-10-13T12:52:08;44.13;;;8.80;;
53293;SDS011;39181;53.440;5.644;2023-10-13T12:54:53;44.80;;;8.82;;
53293;SDS011;39181;53.440;5.644;2023-10-13T12:57:21;57.85;;;9.30;;
53293;SDS011;39181;53.440;5.644;2023-10-13T12:59:48;41.35;;;8.93;;
53293;SDS011;39181;53.440;5.644;2023-10-13T13:02:14;52.35;;;8.32;;
53293;SDS011;39181;53.440;5.644;2023-10-13T13:04:43;37.63;;;7.72;;
53293;SDS011;39181;53.440;5.644;2023-10-13T13:07:09;40.38;;;7.85;;
53293;SDS011;39181;53.440;5.644;2023-10-13T13:09:39;40.30;;;8.93;;
53293;SDS011;39181;53.440;5.644;2023-10-13T13:12:05;35.47;;;8.15;;
53293;SDS011;39181;53.440;5.644;2023-10-13T13:14:45;41.83;;;7.93;;
53293;SDS011;39181;53.440;5.644;2023-10-13T13:17:19;34.83;;;8.48;;
53293;SDS011;39181;53.440;5.644;2023-10-13T13:19:45;32.03;;;8.13;;
53293;SDS011;39181;53.440;5.644;2023-10-13T13:22:11;36.33;;;7.20;;
53293;SDS011;39181;53.440;5.644;2023-10-13T13:24:40;41.70;;;7.95;;
53293;SDS011;39181;53.440;5.644;2023-10-13T13:27:13;29.80;;;7.57;;
53293;SDS011;39181;53.440;5.644;2023-10-13T13:29:43;38.10;;;7.30;;
53293;SDS011;39181;53.440;5.644;2023-10-13T13:32:09;35.60;;;8.13;;
53293;SDS011;39181;53.440;5.644;2023-10-13T13:34:48;33.95;;;8.35;;
53293;SDS011;39181;53.440;5.644;2023-10-13T13:37:29;40.33;;;8.82;;
53293;SDS011;39181;53.440;5.644;2023-10-13T13:39:56;37.22;;;7.60;;
53293;SDS011;39181;53.440;5.644;2023-10-13T13:42:27;34.35;;;7.78;;
53293;SDS011;39181;53.440;5.644;2023-10-13T13:44:54;30.67;;;7.70;;
53293;SDS011;39181;53.440;5.644;2023-10-13T13:47:23;40.63;;;7.72;;
53293;SDS011;39181;53.440;5.644;2023-10-13T13:49:49;41.28;;;8.15;;
53293;SDS011;39181;53.440;5.644;2023-10-13T13:52:19;40.17;;;8.35;;
53293;SDS011;39181;53.440;5.644;2023-10-13T13:54:58;41.25;;;8.18;;
53293;SDS011;39181;53.440;5.644;2023-10-13T13:57:27;40.95;;;7.82;;
53293;SDS011;39181;53.440;5.644;2023-10-13T13:59:53;38.70;;;9.13;;
53293;SDS011;39181;53.440;5.644;2023-10-13T14:02:19;44.33;;;8.70;;
53293;SDS011;39181;53.440;5.644;2023-10-13T14:04:45;43.25;;;8.52;;
53293;SDS011;39181;53.440;5.644;2023-10-13T14:07:15;42.80;;;9.18;;
53293;SDS011;39181;53.440;5.644;2023-10-13T14:09:44;38.10;;;9.57;;
53293;SDS011;39181;53.440;5.644;2023-10-13T14:12:09;43.47;;;10.02;;
53293;SDS011;39181;53.440;5.644;2023-10-13T14:14:54;41.35;;;9.55;;
53293;SDS011;39181;53.440;5.644;2023-10-13T14:17:21;46.22;;;10.23;;
53293;SDS011;39181;53.440;5.644;2023-10-13T14:19:54;43.60;;;9.50;;
53293;SDS011;39181;53.440;5.644;2023-10-13T14:22:23;42.15;;;8.68;;
53293;SDS011;39181;53.440;5.644;2023-10-13T14:24:50;39.83;;;8.75;;
53293;SDS011;39181;53.440;5.644;2023-10-13T14:27:19;46.90;;;9.65;;
53293;SDS011;39181;53.440;5.644;2023-10-13T14:29:48;45.08;;;10.63;;
53293;SDS011;39181;53.440;5.644;2023-10-13T14:32:18;43.40;;;9.35;;
53293;SDS011;39181;53.440;5.644;2023-10-13T14:34:45;40.85;;;9.02;;
53293;SDS011;39181;53.440;5.644;2023-10-13T14:37:13;42.03;;;9.38;;
53293;SDS011;39181;53.440;5.644;2023-10-13T14:39:41;47.38;;;9.85;;
53293;SDS011;39181;53.440;5.644;2023-10-13T14:42:07;41.22;;;9.10;;
53293;SDS011;39181;53.440;5.644;2023-10-13T14:44:34;39.22;;;8.48;;
53293;SDS011;39181;53.440;5.644;2023-10-13T14:47:03;41.40;;;9.02;;
53293;SDS011;39181;53.440;5.644;2023-10-13T14:49:33;39.50;;;8.82;;
53293;SDS011;39181;53.440;5.644;2023-10-13T14:52:00;44.42;;;8.65;;
53293;SDS011;39181;53.440;5.644;2023-10-13T14:54:26;47.85;;;9.30;;
53293;SDS011;39181;53.440;5.644;2023-10-13T14:57:01;34.78;;;8.40;;
53293;SDS011;39181;53.440;5.644;2023-10-13T14:59:27;50.10;;;9.70;;
53293;SDS011;39181;53.440;5.644;2023-10-13T15:01:57;38.92;;;8.35;;
53293;SDS011;39181;53.440;5.644;2023-10-13T15:04:24;40.33;;;8.52;;
53293;SDS011;39181;53.440;5.644;2023-10-13T15:06:50;34.92;;;7.63;;
53293;SDS011;39181;53.440;5.644;2023-10-13T15:09:15;45.75;;;9.02;;
53293;SDS011;39181;53.440;5.644;2023-10-13T15:11:48;44.10;;;8.15;;
53293;SDS011;39181;53.440;5.644;2023-10-13T15:14:17;38.45;;;9.05;;
53293;SDS011;39181;53.440;5.644;2023-10-13T15:16:45;30.80;;;7.30;;
53293;SDS011;39181;53.440;5.644;2023-10-13T15:19:11;34.00;;;7.68;;
53293;SDS011;39181;53.440;5.644;2023-10-13T15:21:37;37.80;;;9.05;;